Hovedside
METAR-TAF:

METAR-TAF

Lufthavner :

Bornholms lufthavn

Rønne, Danmark

breddegrad: 55-04N, lengdegrad: 014-45E, høyde over havet: 16 m

Gjeldene værobservasjon

Denne rapporten ble laget for 14 minutter siden, klokken 08:50 UTC
Vind 11 kt fra Nordøst med vindkast opp mot 21 kt, skiftende mellom Nord-nordøst og Øst
Temperatur 7°C
Luftfuktighet 81%
Trykk 1033 hPa
Sikt 10 km eller mer

METAR: EKRN 180850Z AUTO 05011G21KT 020V080 9999NDV BKN015/// 07/04 Q1033

Tid: 10:04 (09:04 UTC)

Varsel

Denne rapporten ble laget for 44 minutter siden, klokken 08:20 UTC
Varsel gyldig fra 18. klokken 09 UTC til 18. klokken 18 UTC
Vind 15 kt fra Nordøst
Sikt 10 km eller mer
Brutte skyer i en høyde av 1500 ft
Midlertidig
fra 18. klokken 09 UTC til 18. klokken 13 UTC
Brutte skyer i en høyde av 1200 ft

TAF: EKRN 180820Z 1809/1818 04015KT 9999 BKN015 TEMPO 1809/1813 BKN012

Værobservasjoner og værvarsel for over 4000 flyplasser (METAR- og TAF-rapporter).

Tilgjengelige stasjoner er representert av de røde og gule prikkene på kartet.

Hold musepekeren over prikken for å se navnet på stasjonen.

Klikk så for å se værobservasjoner og -varsler.

For å forandre kartet kan du klikke på den grønne knappen med svart kryss for å zoome inn, på den grønne knappen med strek for å zoome ut, eller på de grønne pilene for å se tilstøtende kart.


METAR-TAF: